Surface observations / Europe / LICJ

Quebec | Canada | USA | France | UK | Europe | Elsewhere

Display: Info & Location for LICJ | Help decoding METAR

LICJ PALERMO/POINT RAISI -- IY
Raw surface observations for station LICJ
LICJ 200520Z 21018KT CAVOK 19/09 Q1007=
LICJ 200450Z 20015KT CAVOK 19/09 Q1006=
LICJ 200420Z 20013KT CAVOK 18/08 Q1006=
LICJ 200350Z 22018KT CAVOK 18/08 Q1006=
LICJ 200320Z 22021KT CAVOK 19/07 Q1006=
LICJ 200250Z 21020G32KT CAVOK 19/06 Q1006=
LICJ 200220Z 20025G36KT CAVOK 20/04 Q1006=
LICJ 200150Z 19029G40KT CAVOK 20/03 Q1005=
LICJ 200120Z 20031G45KT CAVOK 20/02 Q1005=
LICJ 200050Z 19033G49KT CAVOK 21/01 Q1005=
LICJ 200020Z 20028G43KT CAVOK 20/01 Q1005 WS RWY20=
LICJ 192350Z 19031G43KT CAVOK 21/01 Q1005 WS RWY20=
LICJ 192320Z 19028G41KT CAVOK 21/02 Q1005=
LICJ 192250Z 19028G44KT CAVOK 21/01 Q1005=
LICJ 192220Z 19029G46KT CAVOK 21/02 Q1005=
LICJ 192150Z 19025G41KT CAVOK 21/02 Q1006 WS RWY20=
LICJ 192120Z 19023G37KT CAVOK 20/02 Q1006 WS RWY20=
LICJ 192050Z 20023G33KT CAVOK 20/02 Q1007=
LICJ 192020Z 19021G32KT 160V220 CAVOK 19/02 Q1007=
LICJ 191950Z 19021G32KT 160V220 CAVOK 19/02 Q1007=
LICJ 191920Z 18023KT CAVOK 19/02 Q1007 WS RWY20=
LICJ 191850Z 17025G35KT CAVOK 19/02 Q1007=
LICJ 191820Z 18025G35KT CAVOK 18/04 Q1007=
LICJ 191750Z 19024G34KT CAVOK 18/06 Q1008=
LICJ 191720Z 20023KT CAVOK 19/08 Q1008=
LICJ 191650Z 20018G29KT CAVOK 19/07 Q1007=
LICJ 191620Z 18021G32KT CAVOK 19/07 Q1008=
LICJ 191550Z 20016KT 170V230 CAVOK 20/08 Q1008=
LICJ 191520Z 19013KT 150V220 CAVOK 20/06 Q1008=
LICJ 191450Z 20015KT 160V230 CAVOK 20/09 Q1009=
LICJ 191420Z 19014KT 160V220 CAVOK 20/10 Q1009=
LICJ 191350Z 20016KT CAVOK 19/10 Q1009=
LICJ 191320Z 20015KT CAVOK 19/10 Q1009=
LICJ 191250Z 21015KT CAVOK 20/11 Q1009=
LICJ 191220Z 21017KT 9999 FEW035 20/11 Q1010=
LICJ 191150Z 21019KT 9999 FEW035 20/10 Q1010=
LICJ 191120Z 20019KT 9999 FEW035 20/09 Q1010=
LICJ 191050Z 19019KT 150V210 9999 FEW035 20/10 Q1010=
LICJ 191020Z 19019KT 9999 FEW035 18/11 Q1010=
LICJ 190950Z 19017KT 9999 FEW025 18/10 Q1010=
LICJ 190920Z 20019G29KT 9999 FEW025 17/10 Q1010=
LICJ 190850Z 19021KT 9999 FEW025 16/10 Q1010=
LICJ 190750Z 19021KT 9999 FEW025 16/09 Q1011=
LICJ 190720Z 19019KT 9999 FEW022 15/10 Q1010=
LICJ 190650Z 19018KT 9999 FEW022 15/10 Q1010=
LICJ 190620Z 19017KT 9999 FEW025 15/09 Q1010=
LICJ 190550Z 18017KT 9999 FEW025 15/09 Q1010=
LICJ 190520Z 19017KT 9999 FEW030 14/08 Q1009=